Time;durP1;ratioP1;P1;durP2;ratioP2;P2;SDS_P1;SDS_P2;PMS_P1;PMS_P2;Temp;Humidity;BMP_temperature;BMP_pressure;BME280_temperature;BME280_humidity;BME280_pressure;Samples;Min_cycle;Max_cycle;Signal;HPM_P1;HPM_P2
2023/08/27 00:00:22;;;;;;;7.38;4.82;;;30.10;49.30;;;;;;5067963;28;20059;-69
2023/08/27 00:02:48;;;;;;;6.60;5.25;;;30.00;49.30;;;;;;5070999;28;20108;-69
2023/08/27 00:05:14;;;;;;;4.85;3.95;;;30.00;49.30;;;;;;5071081;28;20201;-68
2023/08/27 00:07:40;;;;;;;7.30;4.68;;;30.00;49.40;;;;;;5070905;28;20037;-68
2023/08/27 00:10:07;;;;;;;6.07;4.00;;;29.90;48.80;;;;;;5070845;28;20123;-69
2023/08/27 00:12:33;;;;;;;7.80;5.03;;;30.00;49.40;;;;;;5070782;28;20029;-69
2023/08/27 00:14:59;;;;;;;5.88;4.38;;;30.10;49.50;;;;;;5071051;28;20037;-68
2023/08/27 00:17:25;;;;;;;8.32;4.20;;;29.90;49.00;;;;;;5070962;28;20037;-69
2023/08/27 00:19:51;;;;;;;6.13;3.65;;;29.90;49.10;;;;;;5071037;28;20108;-69
2023/08/27 00:22:21;;;;;;;9.35;4.95;;;29.90;49.10;;;;;;5071040;28;20074;-69
2023/08/27 00:24:47;;;;;;;5.10;4.22;;;29.90;49.10;;;;;;5047984;28;20080;-68
2023/08/27 00:27:13;;;;;;;5.18;4.15;;;30.00;49.70;;;;;;5048039;28;20134;-69
2023/08/27 00:29:39;;;;;;;6.53;4.68;;;30.00;49.70;;;;;;5048198;28;20451;-69
2023/08/27 00:32:05;;;;;;;4.40;4.00;;;29.90;49.20;;;;;;5031665;28;20048;-69
2023/08/27 00:34:35;;;;;;;4.15;3.60;;;30.00;49.80;;;;;;5031453;28;20037;-67
2023/08/27 00:37:03;;;;;;;4.50;3.40;;;29.90;49.20;;;;;;5013706;28;20131;-69
2023/08/27 00:39:30;;;;;;;4.18;3.78;;;30.00;49.90;;;;;;5011500;28;20059;-69
2023/08/27 00:41:56;;;;;;;5.55;3.55;;;30.00;49.90;;;;;;5028394;28;20049;-69
2023/08/27 00:44:23;;;;;;;4.25;3.22;;;29.90;49.40;;;;;;5011909;28;20046;-69
2023/08/27 00:46:50;;;;;;;7.13;3.78;;;30.10;50.00;;;;;;5011048;28;20044;-69
2023/08/27 00:49:17;;;;;;;4.07;3.58;;;30.10;50.00;;;;;;5011846;28;20038;-69
2023/08/27 00:51:46;;;;;;;3.85;3.47;;;30.10;50.00;;;;;;5011678;28;20060;-69
2023/08/27 00:54:14;;;;;;;4.28;3.20;;;30.00;50.00;;;;;;5011586;28;20041;-70
2023/08/27 00:56:45;;;;;;;4.00;3.58;;;30.00;50.10;;;;;;5011600;28;20071;-69
2023/08/27 00:59:13;;;;;;;3.45;3.10;;;30.10;50.10;;;;;;5015194;28;20103;-69
2023/08/27 01:01:42;;;;;;;3.25;2.83;;;30.00;50.10;;;;;;5037647;28;20040;-69
2023/08/27 01:04:09;;;;;;;3.50;3.20;;;30.00;50.10;;;;;;5054027;28;20056;-69
2023/08/27 01:06:35;;;;;;;7.43;3.67;;;30.00;50.10;;;;;;5053643;28;20045;-69
2023/08/27 01:09:23;;;;;;;5.45;3.85;;;29.90;49.50;;;;;;5054103;28;20025;-69
2023/08/27 01:12:03;;;;;;;3.58;2.95;;;30.00;50.20;;;;;;5052527;28;20072;-69
2023/08/27 01:14:33;;;;;;;3.40;3.08;;;29.90;49.60;;;;;;5053732;28;20076;-70
2023/08/27 01:17:02;;;;;;;4.22;3.30;;;30.00;50.20;;;;;;5053512;28;20121;-69
2023/08/27 01:19:30;;;;;;;3.78;3.42;;;30.10;50.30;;;;;;5051043;28;20433;-69
2023/08/27 01:21:56;;;;;;;5.57;3.60;;;30.00;50.30;;;;;;5050865;28;20041;-69
2023/08/27 01:24:22;;;;;;;4.10;2.92;;;30.00;50.30;;;;;;5034223;28;20099;-70
2023/08/27 01:26:57;;;;;;;3.40;3.08;;;29.80;49.70;;;;;;5050896;28;20140;-69
2023/08/27 01:29:42;;;;;;;10.10;3.75;;;29.90;49.80;;;;;;5034464;28;20087;-69
2023/08/27 01:32:32;;;;;;;5.65;4.15;;;29.80;49.80;;;;;;5034194;28;20196;-69
2023/08/27 01:34:59;;;;;;;4.25;3.85;;;29.90;49.80;;;;;;5034271;28;20051;-70
2023/08/27 01:37:26;;;;;;;4.15;3.28;;;30.00;50.50;;;;;;5050657;28;20485;-69
2023/08/27 01:40:05;;;;;;;4.18;3.17;;;29.90;49.90;;;;;;5034077;28;20426;-69
2023/08/27 01:42:35;;;;;;;8.10;3.45;;;29.90;49.90;;;;;;5050674;28;20051;-69
2023/08/27 01:45:06;;;;;;;4.43;3.55;;;29.80;50.00;;;;;;5050856;28;20044;-69
2023/08/27 01:47:32;;;;;;;3.50;2.95;;;29.80;50.00;;;;;;5033729;28;20060;-69
2023/08/27 01:50:00;;;;;;;5.78;3.10;;;29.90;50.00;;;;;;5033908;28;20045;-69
2023/08/27 01:52:26;;;;;;;4.95;3.03;;;29.80;50.00;;;;;;5048295;28;20048;-69
2023/08/27 01:54:52;;;;;;;4.47;3.08;;;30.00;50.60;;;;;;5071769;28;20040;-68
2023/08/27 01:57:18;;;;;;;3.65;2.97;;;29.90;50.10;;;;;;5071615;28;20040;-69
2023/08/27 01:59:45;;;;;;;3.33;2.70;;;30.00;50.70;;;;;;5071582;28;20428;-67
2023/08/27 02:02:11;;;;;;;7.80;3.67;;;30.00;50.70;;;;;;5071461;28;20028;-69
2023/08/27 02:04:37;;;;;;;3.97;3.50;;;29.90;50.20;;;;;;5072847;28;20036;-69
2023/08/27 02:07:04;;;;;;;3.45;3.15;;;30.10;50.70;;;;;;5072467;28;20033;-69
2023/08/27 02:09:30;;;;;;;3.83;2.78;;;30.00;50.80;;;;;;5071427;28;20024;-69
2023/08/27 02:11:56;;;;;;;3.03;2.78;;;30.00;50.80;;;;;;5072684;28;20086;-70
2023/08/27 02:14:23;;;;;;;5.32;3.13;;;30.00;50.80;;;;;;5071449;28;20042;-69
2023/08/27 02:16:49;;;;;;;4.10;2.67;;;29.90;50.20;;;;;;5071110;28;20480;-69
2023/08/27 02:19:15;;;;;;;3.72;3.17;;;30.00;50.80;;;;;;5071063;28;20397;-69
2023/08/27 02:21:41;;;;;;;3.20;2.90;;;29.90;50.20;;;;;;5071189;28;20079;-69
2023/08/27 02:24:07;;;;;;;5.53;2.78;;;29.90;50.30;;;;;;5071096;28;20052;-69
2023/08/27 02:26:33;;;;;;;3.25;2.95;;;29.90;50.30;;;;;;5071104;28;20074;-69
2023/08/27 02:28:59;;;;;;;5.18;3.42;;;29.90;50.30;;;;;;5053342;28;20057;-69
2023/08/27 02:31:25;;;;;;;3.88;3.03;;;29.90;50.30;;;;;;5072279;28;20047;-69
2023/08/27 02:33:51;;;;;;;6.10;3.28;;;29.90;50.30;;;;;;5070993;28;20029;-69
2023/08/27 02:36:17;;;;;;;3.53;2.88;;;29.80;50.30;;;;;;5070735;28;20028;-69
2023/08/27 02:38:45;;;;;;;7.13;3.28;;;29.80;50.30;;;;;;5070868;28;20032;-69
2023/08/27 02:41:13;;;;;;;5.78;3.10;;;29.80;50.40;;;;;;5052571;28;20614;-69
2023/08/27 02:43:39;;;;;;;2.97;2.78;;;29.90;50.40;;;;;;5050878;28;20040;-69
2023/08/27 02:46:06;;;;;;;3.20;2.90;;;30.00;51.00;;;;;;5050609;28;20134;-69
2023/08/27 02:48:32;;;;;;;5.10;3.55;;;29.90;50.50;;;;;;5050591;28;20049;-69
2023/08/27 02:50:59;;;;;;;3.33;2.88;;;29.80;50.50;;;;;;5050511;28;20036;-69
2023/08/27 02:53:26;;;;;;;3.50;3.20;;;30.00;51.10;;;;;;5052156;28;20036;-69
2023/08/27 02:55:52;;;;;;;3.45;2.75;;;29.80;50.50;;;;;;5050315;28;20068;-70
2023/08/27 02:58:18;;;;;;;3.60;3.30;;;29.90;50.60;;;;;;5051795;28;20035;-69
2023/08/27 03:00:44;;;;;;;3.53;2.92;;;29.80;50.60;;;;;;5050709;28;20029;-69
2023/08/27 03:03:10;;;;;;;3.08;2.85;;;29.80;50.60;;;;;;5050340;28;20119;-69
2023/08/27 03:05:38;;;;;;;3.10;2.80;;;29.80;50.60;;;;;;5050459;28;20472;-68
2023/08/27 03:08:05;;;;;;;3.63;3.25;;;29.90;50.60;;;;;;5050106;28;20036;-69
2023/08/27 03:10:31;;;;;;;2.47;2.28;;;30.00;51.20;;;;;;5050477;28;20037;-69
2023/08/27 03:12:57;;;;;;;4.03;2.92;;;29.80;50.60;;;;;;5051666;28;20489;-69
2023/08/27 03:15:23;;;;;;;3.38;2.78;;;29.80;50.60;;;;;;5051618;28;20036;-69
2023/08/27 03:17:49;;;;;;;3.28;2.85;;;30.00;51.20;;;;;;5050010;28;20061;-69
2023/08/27 03:20:15;;;;;;;3.35;2.72;;;29.90;50.70;;;;;;5050944;28;20053;-69
2023/08/27 03:22:41;;;;;;;3.90;3.17;;;29.90;50.70;;;;;;5051548;28;20033;-68
2023/08/27 03:25:08;;;;;;;4.90;3.13;;;30.00;51.30;;;;;;5051543;28;20111;-69
2023/08/27 03:27:35;;;;;;;3.47;2.88;;;29.80;50.70;;;;;;5049025;28;20053;-69
2023/08/27 03:30:02;;;;;;;3.45;3.08;;;29.90;50.70;;;;;;5049997;28;20645;-69
2023/08/27 03:32:29;;;;;;;4.13;3.17;;;29.90;50.70;;;;;;5049954;28;20111;-69
2023/08/27 03:34:56;;;;;;;3.35;2.95;;;29.80;50.70;;;;;;5049890;28;20030;-69
2023/08/27 03:37:22;;;;;;;6.55;3.17;;;29.80;50.70;;;;;;5049750;28;20488;-69
2023/08/27 03:39:48;;;;;;;4.45;3.22;;;29.80;50.70;;;;;;5049825;28;20120;-69
2023/08/27 03:42:14;;;;;;;4.00;2.65;;;29.80;50.70;;;;;;5049972;28;20129;-69
2023/08/27 03:44:40;;;;;;;3.78;3.33;;;29.80;50.70;;;;;;5037892;28;20028;-70
2023/08/27 03:47:06;;;;;;;3.95;2.50;;;29.80;50.70;;;;;;5069391;28;20048;-66
2023/08/27 03:49:34;;;;;;;3.70;3.08;;;29.70;50.80;;;;;;5069830;28;20039;-70
2023/08/27 03:52:00;;;;;;;3.40;2.65;;;29.80;50.80;;;;;;5069948;28;20037;-70
2023/08/27 03:54:27;;;;;;;3.78;3.08;;;29.80;50.80;;;;;;5069877;28;20072;-70
2023/08/27 03:56:54;;;;;;;3.45;3.15;;;29.70;50.80;;;;;;5069709;28;20109;-70
2023/08/27 03:59:20;;;;;;;4.72;3.75;;;29.70;50.70;;;;;;5067880;28;20037;-70
2023/08/27 04:01:46;;;;;;;4.80;3.17;;;29.90;50.60;;;;;;5067983;28;20075;-70
2023/08/27 04:04:12;;;;;;;4.43;4.03;;;29.80;50.50;;;;;;5048254;28;20076;-70
2023/08/27 04:06:38;;;;;;;3.95;3.58;;;29.80;50.50;;;;;;5048104;28;20053;-71
2023/08/27 04:09:04;;;;;;;4.13;3.30;;;29.80;50.40;;;;;;5065075;28;20103;-69
2023/08/27 04:11:30;;;;;;;5.20;3.70;;;29.70;50.30;;;;;;5048243;28;20233;-69
2023/08/27 04:13:57;;;;;;;5.03;3.92;;;29.80;50.30;;;;;;5048340;28;20041;-71
2023/08/27 04:16:22;;;;;;;4.05;3.75;;;30.00;53.60;;;;;;5048117;28;20037;-71
2023/08/27 04:18:48;;;;;;;6.45;3.85;;;30.20;55.50;;;;;;5048098;28;20493;-71
2023/08/27 04:21:14;;;;;;;4.60;4.03;;;30.40;58.70;;;;;;5064801;28;20060;-70
2023/08/27 04:23:40;;;;;;;4.85;3.63;;;30.50;59.00;;;;;;4998376;28;20208;-68
2023/08/27 04:26:06;;;;;;;4.68;3.78;;;30.50;54.70;;;;;;5048435;28;20048;-68
2023/08/27 04:28:33;;;;;;;4.13;3.72;;;30.40;53.60;;;;;;5047996;28;20501;-68
2023/08/27 04:30:59;;;;;;;5.95;3.42;;;30.20;53.40;;;;;;5048015;28;20037;-68
2023/08/27 04:33:25;;;;;;;4.30;3.67;;;30.30;52.60;;;;;;5051203;28;20508;-68
2023/08/27 04:35:52;;;;;;;5.60;3.13;;;30.10;52.40;;;;;;5035178;28;20045;-68
2023/08/27 04:38:19;;;;;;;4.18;2.95;;;30.10;52.40;;;;;;5034938;28;20111;-67
2023/08/27 04:40:52;;;;;;;5.15;3.10;;;30.10;52.40;;;;;;5021296;28;20505;-68
2023/08/27 04:43:19;;;;;;;3.35;3.03;;;30.10;52.50;;;;;;5055337;28;20039;-69
2023/08/27 04:45:45;;;;;;;3.08;2.83;;;30.10;52.50;;;;;;5071717;28;20048;-67
2023/08/27 04:48:11;;;;;;;3.65;3.15;;;30.10;52.70;;;;;;5054799;28;20063;-68
2023/08/27 04:50:38;;;;;;;6.53;3.42;;;30.00;52.80;;;;;;5054864;28;20049;-68
2023/08/27 04:53:04;;;;;;;5.10;3.05;;;30.10;53.00;;;;;;5071713;28;20043;-68
2023/08/27 04:55:30;;;;;;;4.50;3.20;;;30.10;53.10;;;;;;5054850;28;20036;-69
2023/08/27 04:57:56;;;;;;;4.57;3.05;;;30.00;53.20;;;;;;5071390;28;20050;-69
2023/08/27 05:00:23;;;;;;;3.58;3.20;;;30.10;53.60;;;;;;5055060;28;20040;-68
2023/08/27 05:02:50;;;;;;;3.88;3.10;;;30.10;53.30;;;;;;5035567;28;20045;-69
2023/08/27 05:05:17;;;;;;;3.40;3.10;;;29.90;52.30;;;;;;5032848;28;20040;-70
2023/08/27 05:07:43;;;;;;;4.90;3.78;;;30.10;52.40;;;;;;5049194;28;20044;-67
2023/08/27 05:10:10;;;;;;;5.22;4.45;;;30.10;52.10;;;;;;5048374;28;20075;-68
2023/08/27 05:12:36;;;;;;;4.60;3.70;;;30.20;54.00;;;;;;5070978;28;20045;-67
2023/08/27 05:15:05;;;;;;;7.72;3.78;;;30.10;54.90;;;;;;5071249;28;20036;-67
2023/08/27 05:17:32;;;;;;;5.43;4.13;;;30.20;53.10;;;;;;5054180;28;20048;-67
2023/08/27 05:19:58;;;;;;;4.13;3.72;;;30.20;52.50;;;;;;5054511;28;20032;-68
2023/08/27 05:22:24;;;;;;;4.53;3.95;;;30.20;52.20;;;;;;5071063;28;20062;-66
2023/08/27 05:24:50;;;;;;;4.68;4.03;;;30.20;52.10;;;;;;5087827;28;20040;-67
2023/08/27 05:27:16;;;;;;;5.45;4.05;;;30.10;52.20;;;;;;5070892;28;20040;-67
2023/08/27 05:29:42;;;;;;;5.35;3.85;;;30.20;53.00;;;;;;5070833;28;20179;-67
2023/08/27 05:32:08;;;;;;;6.47;4.10;;;30.20;52.90;;;;;;5054167;28;20119;-67
2023/08/27 05:34:34;;;;;;;5.72;3.70;;;30.20;53.00;;;;;;5087739;28;20143;-68
2023/08/27 05:37:00;;;;;;;6.10;4.32;;;30.20;53.60;;;;;;5088448;28;20879;-68
2023/08/27 05:39:27;;;;;;;5.20;4.70;;;30.20;53.20;;;;;;5070244;28;20154;-68
2023/08/27 05:41:55;;;;;;;6.18;4.82;;;30.20;52.90;;;;;;5070794;28;20535;-67
2023/08/27 05:44:21;;;;;;;8.57;5.03;;;30.10;52.80;;;;;;5055826;28;20048;-68
2023/08/27 05:46:47;;;;;;;8.02;5.25;;;30.10;52.80;;;;;;5053108;28;20115;-68
2023/08/27 05:49:13;;;;;;;4.45;3.78;;;30.20;53.30;;;;;;5035364;28;20484;-67
2023/08/27 05:51:39;;;;;;;5.35;4.60;;;30.30;53.10;;;;;;5035207;28;20045;-68
2023/08/27 05:54:05;;;;;;;12.25;5.07;;;30.20;53.30;;;;;;5051693;28;20052;-68
2023/08/27 05:56:31;;;;;;;13.75;5.97;;;30.20;52.80;;;;;;5051605;28;20029;-70
2023/08/27 05:58:57;;;;;;;8.50;5.78;;;30.20;53.40;;;;;;5050318;28;20037;-70
2023/08/27 06:01:25;;;;;;;7.60;4.75;;;30.20;55.40;;;;;;5049882;28;20476;-70
2023/08/27 06:03:51;;;;;;;4.60;3.88;;;30.20;54.10;;;;;;5033669;28;20064;-69
2023/08/27 06:06:17;;;;;;;5.32;3.58;;;30.30;53.60;;;;;;5033222;28;20036;-69
2023/08/27 06:08:43;;;;;;;5.72;4.15;;;30.20;53.00;;;;;;5033211;28;20045;-69
2023/08/27 06:11:09;;;;;;;9.10;4.03;;;30.30;52.80;;;;;;5033315;28;20103;-69
2023/08/27 06:13:35;;;;;;;5.18;3.13;;;30.20;52.80;;;;;;5033844;28;20036;-69
2023/08/27 06:16:01;;;;;;;5.88;3.53;;;30.30;52.60;;;;;;5050412;28;20076;-68
2023/08/27 06:18:27;;;;;;;5.72;4.38;;;30.20;53.10;;;;;;5050125;28;20136;-69
2023/08/27 06:20:53;;;;;;;6.75;4.65;;;30.20;53.10;;;;;;5033526;28;20064;-69
2023/08/27 06:23:19;;;;;;;5.35;4.47;;;30.20;52.60;;;;;;5049954;28;20063;-71
2023/08/27 06:25:46;;;;;;;4.63;4.22;;;30.30;52.80;;;;;;5033350;28;20029;-70
2023/08/27 06:28:12;;;;;;;4.30;3.95;;;30.30;51.90;;;;;;5049679;28;20076;-70
2023/08/27 06:30:42;;;;;;;7.32;4.22;;;30.20;51.70;;;;;;5033158;28;20418;-70
2023/08/27 06:33:11;;;;;;;5.13;4.47;;;30.20;51.50;;;;;;5046830;28;20037;-69
2023/08/27 06:35:37;;;;;;;6.47;4.43;;;30.20;51.80;;;;;;5050958;28;20021;-69
2023/08/27 06:38:04;;;;;;;7.15;5.03;;;30.30;51.50;;;;;;5051616;28;20112;-69
2023/08/27 06:40:30;;;;;;;4.28;3.72;;;30.20;51.30;;;;;;5034215;28;20489;-68
2023/08/27 06:42:56;;;;;;;5.82;4.70;;;30.20;52.10;;;;;;5052595;28;20067;-68
2023/08/27 06:45:23;;;;;;;5.53;4.63;;;30.30;52.30;;;;;;5051050;28;20040;-69
2023/08/27 06:47:49;;;;;;;5.97;5.38;;;30.10;52.40;;;;;;5050420;28;20064;-69
2023/08/27 06:50:15;;;;;;;5.82;4.43;;;30.20;52.20;;;;;;5049829;28;20037;-67
2023/08/27 06:52:41;;;;;;;12.30;4.47;;;30.10;52.30;;;;;;5034106;28;20040;-68
2023/08/27 06:55:09;;;;;;;7.00;4.40;;;30.10;52.80;;;;;;5051474;28;20424;-69
2023/08/27 06:57:35;;;;;;;5.03;4.13;;;30.20;53.40;;;;;;5050606;28;20500;-69
2023/08/27 07:00:02;;;;;;;5.68;4.05;;;30.10;53.40;;;;;;5050747;28;20065;-68
2023/08/27 07:02:30;;;;;;;5.05;4.07;;;30.20;53.10;;;;;;5050661;28;20511;-69
2023/08/27 07:04:56;;;;;;;6.47;3.67;;;30.20;52.50;;;;;;5051061;28;20037;-69
2023/08/27 07:07:22;;;;;;;4.82;4.32;;;30.20;51.20;;;;;;5050412;28;20115;-69
2023/08/27 07:09:48;;;;;;;4.20;3.80;;;30.20;50.80;;;;;;5050500;28;20512;-69
2023/08/27 07:12:14;;;;;;;5.28;4.78;;;30.10;50.20;;;;;;5051787;28;20029;-69
2023/08/27 07:14:40;;;;;;;5.68;4.60;;;30.20;49.70;;;;;;5051659;28;20111;-69
2023/08/27 07:17:06;;;;;;;7.90;3.70;;;30.10;49.40;;;;;;5050141;28;20476;-70
2023/08/27 07:19:32;;;;;;;7.55;4.88;;;30.00;48.80;;;;;;5051444;28;20037;-69
2023/08/27 07:21:58;;;;;;;8.25;4.30;;;30.00;48.70;;;;;;5049994;28;20393;-70
2023/08/27 07:24:24;;;;;;;8.63;4.38;;;30.10;49.00;;;;;;5051372;28;20044;-69
2023/08/27 07:26:50;;;;;;;5.88;5.00;;;30.10;49.20;;;;;;5050252;28;20040;-70
2023/08/27 07:29:17;;;;;;;5.70;3.63;;;30.00;49.70;;;;;;5050163;28;20033;-69
2023/08/27 07:31:45;;;;;;;7.32;4.18;;;30.00;50.20;;;;;;5050154;28;20033;-69
2023/08/27 07:34:11;;;;;;;6.65;4.45;;;30.00;50.20;;;;;;5055785;28;20036;-70
2023/08/27 07:36:37;;;;;;;8.30;5.25;;;30.20;50.00;;;;;;5071107;28;20389;-69
2023/08/27 07:39:03;;;;;;;3.95;3.55;;;29.90;49.50;;;;;;5071122;28;20036;-70
2023/08/27 07:41:29;;;;;;;5.45;4.13;;;30.00;49.20;;;;;;5069861;28;20055;-70
2023/08/27 07:43:55;;;;;;;6.18;4.85;;;30.00;48.80;;;;;;5069968;28;20081;-70
2023/08/27 07:46:22;;;;;;;6.07;4.28;;;29.90;47.50;;;;;;5069875;28;20048;-70
2023/08/27 07:48:48;;;;;;;5.63;4.00;;;30.00;47.50;;;;;;5070780;28;20462;-70
2023/08/27 07:51:14;;;;;;;5.80;4.13;;;30.00;46.90;;;;;;5069862;28;20484;-70
2023/08/27 07:53:40;;;;;;;4.95;3.55;;;30.20;46.40;;;;;;5053218;28;20104;-70
2023/08/27 07:56:06;;;;;;;4.22;3.70;;;29.90;45.40;;;;;;5049721;28;20111;-69
2023/08/27 07:58:33;;;;;;;4.90;3.75;;;30.10;45.80;;;;;;5049494;28;20041;-70
2023/08/27 08:00:59;;;;;;;4.75;3.95;;;30.00;45.60;;;;;;5049733;28;20045;-71
2023/08/27 08:03:26;;;;;;;4.90;3.28;;;30.10;45.50;;;;;;5049737;28;20057;-70
2023/08/27 08:05:52;;;;;;;6.90;3.58;;;30.00;45.30;;;;;;5051172;28;20032;-71
2023/08/27 08:08:18;;;;;;;4.78;3.80;;;30.00;45.00;;;;;;5053769;28;20037;-71
2023/08/27 08:10:44;;;;;;;7.55;3.92;;;30.00;44.90;;;;;;5054927;28;20029;-72
2023/08/27 08:13:10;;;;;;;5.47;3.63;;;30.10;44.60;;;;;;5054953;28;20090;-71
2023/08/27 08:15:36;;;;;;;5.78;3.50;;;30.00;44.40;;;;;;5054943;28;20044;-72
2023/08/27 08:18:03;;;;;;;3.58;3.03;;;30.10;44.30;;;;;;5054850;28;20037;-73
2023/08/27 08:20:29;;;;;;;3.83;3.40;;;30.10;44.10;;;;;;5055078;28;20025;-72
2023/08/27 08:22:55;;;;;;;7.78;4.07;;;30.00;43.80;;;;;;5054831;28;20033;-71
2023/08/27 08:25:27;;;;;;;4.53;3.38;;;30.10;43.80;;;;;;5054844;28;20393;-71
2023/08/27 08:27:53;;;;;;;3.90;3.50;;;30.00;43.70;;;;;;5054665;28;20029;-70
2023/08/27 08:30:20;;;;;;;4.82;4.18;;;30.00;43.60;;;;;;5052979;28;20285;-71
2023/08/27 08:32:46;;;;;;;4.63;3.42;;;30.00;43.30;;;;;;5054554;28;20035;-70
2023/08/27 08:35:12;;;;;;;3.40;3.10;;;30.00;44.30;;;;;;5054665;28;20448;-70
2023/08/27 08:37:38;;;;;;;4.50;3.38;;;30.20;44.70;;;;;;5052947;28;20439;-70
2023/08/27 08:40:06;;;;;;;7.60;3.85;;;30.30;46.50;;;;;;5054324;28;20420;-72
2023/08/27 08:42:38;;;;;;;3.33;3.03;;;30.90;49.10;;;;;;5054346;28;20040;-71
2023/08/27 08:45:08;;;;;;;6.70;4.95;;;31.60;49.80;;;;;;5054487;28;20068;-70
2023/08/27 08:47:36;;;;;;;21.85;8.10;;;31.80;51.70;;;;;;5054477;28;20139;-69
2023/08/27 08:50:06;;;;;;;6.07;4.53;;;32.00;51.10;;;;;;5052995;28;20032;-70
2023/08/27 08:52:41;;;;;;;5.72;4.07;;;31.90;47.60;;;;;;5054160;28;20041;-71
2023/08/27 08:55:14;;;;;;;10.55;7.20;;;31.70;43.70;;;;;;5054119;28;20032;-73
2023/08/27 08:57:44;;;;;;;;;;;31.50;42.50;;;;;;5053639;28;20064;-71
2023/08/27 09:00:12;;;;;;;5.43;3.83;;;31.40;40.40;;;;;;5053074;28;19923;-72
2023/08/27 09:02:39;;;;;;;5.10;3.63;;;31.40;41.20;;;;;;5053875;28;20388;-72
2023/08/27 09:05:08;;;;;;;5.53;3.65;;;31.30;41.60;;;;;;5053782;28;20032;-70
2023/08/27 09:07:37;;;;;;;5.95;3.65;;;31.20;41.50;;;;;;5053858;28;20039;-70
2023/08/27 09:10:04;;;;;;;3.83;3.35;;;31.30;41.40;;;;;;5053380;28;20041;-70
2023/08/27 09:12:30;;;;;;;3.42;3.10;;;31.10;41.20;;;;;;5053167;28;20476;-71
2023/08/27 09:14:57;;;;;;;4.70;3.35;;;31.10;40.90;;;;;;5053767;28;20044;-70
2023/08/27 09:17:23;;;;;;;4.57;2.70;;;31.00;40.60;;;;;;5051314;28;20080;-69
2023/08/27 09:19:51;;;;;;;3.33;2.70;;;31.10;40.50;;;;;;5053464;28;20060;-67
2023/08/27 09:22:19;;;;;;;3.78;2.90;;;30.90;40.10;;;;;;5031289;28;20456;-69
2023/08/27 09:24:46;;;;;;;3.75;3.30;;;31.00;40.70;;;;;;5048254;28;20053;-69
2023/08/27 09:27:16;;;;;;;4.00;3.30;;;30.90;40.90;;;;;;5050292;28;20036;-69
2023/08/27 09:29:42;;;;;;;4.93;2.97;;;30.90;41.00;;;;;;5053600;28;20029;-68
2023/08/27 09:32:22;;;;;;;3.28;2.70;;;31.00;41.50;;;;;;5053329;28;20033;-67
2023/08/27 09:34:48;;;;;;;9.18;3.65;;;31.00;41.70;;;;;;5053686;28;20043;-68
2023/08/27 09:37:14;;;;;;;3.90;3.42;;;31.00;42.70;;;;;;5053365;28;20076;-68
2023/08/27 09:39:44;;;;;;;5.00;3.45;;;31.00;43.80;;;;;;5052780;28;20068;-67
2023/08/27 09:42:12;;;;;;;8.13;3.67;;;30.90;44.10;;;;;;5052777;28;20457;-69
2023/08/27 09:44:38;;;;;;;7.40;3.47;;;30.90;43.90;;;;;;5046606;28;20340;-66
2023/08/27 09:47:05;;;;;;;5.78;3.67;;;31.00;44.40;;;;;;5061904;28;20107;-67
2023/08/27 09:49:31;;;;;;;7.88;2.78;;;31.00;48.30;;;;;;5053025;28;20103;-66
2023/08/27 09:51:59;;;;;;;7.65;2.88;;;31.10;46.20;;;;;;5052507;28;20048;-67
2023/08/27 09:54:31;;;;;;;4.13;3.10;;;31.10;45.10;;;;;;5051706;28;20480;-67
2023/08/27 09:56:59;;;;;;;3.53;3.15;;;31.20;44.30;;;;;;5052426;28;20083;-66
2023/08/27 09:59:26;;;;;;;7.55;3.90;;;31.00;45.10;;;;;;5052512;28;20035;-68
2023/08/27 10:01:52;;;;;;;33.55;6.78;;;31.10;49.50;;;;;;5052695;28;20480;-67
2023/08/27 10:04:20;;;;;;;8.18;4.70;;;31.30;48.90;;;;;;5052306;28;20102;-66
2023/08/27 10:06:46;;;;;;;9.57;3.45;;;31.40;50.80;;;;;;5052581;28;20037;-67
2023/08/27 10:09:13;;;;;;;8.63;4.13;;;31.40;46.60;;;;;;5051061;28;20465;-68
2023/08/27 10:11:42;;;;;;;5.28;3.38;;;31.40;46.20;;;;;;5066488;28;20041;-69
2023/08/27 10:14:09;;;;;;;7.15;3.50;;;31.30;46.00;;;;;;5054811;28;20058;-68
2023/08/27 10:16:36;;;;;;;2.88;2.28;;;31.20;45.90;;;;;;5052971;28;20094;-68
2023/08/27 10:19:04;;;;;;;4.45;2.83;;;31.20;45.80;;;;;;5072181;28;20044;-68
2023/08/27 10:21:30;;;;;;;4.88;3.55;;;31.10;45.80;;;;;;5056815;28;20440;-67
2023/08/27 10:23:57;;;;;;;6.03;3.60;;;31.20;45.90;;;;;;5052791;28;20037;-67
2023/08/27 10:26:24;;;;;;;5.95;4.22;;;31.30;49.80;;;;;;5064622;28;20024;-66
2023/08/27 10:28:53;;;;;;;5.22;3.42;;;31.20;49.70;;;;;;5053124;28;20072;-66
2023/08/27 10:31:19;;;;;;;8.23;3.67;;;31.50;50.00;;;;;;5038224;28;20093;-67
2023/08/27 10:33:45;;;;;;;3.85;3.25;;;31.30;48.10;;;;;;5052007;28;20056;-68
2023/08/27 10:36:20;;;;;;;6.32;2.90;;;31.50;47.50;;;;;;5052087;28;20029;-67
2023/08/27 10:38:48;;;;;;;4.30;2.95;;;31.30;46.90;;;;;;5050263;28;20090;-68
2023/08/27 10:41:21;;;;;;;5.43;2.92;;;31.30;46.40;;;;;;5051969;28;20039;-68
2023/08/27 10:43:47;;;;;;;4.07;3.00;;;31.20;45.90;;;;;;5066552;28;20040;-69
2023/08/27 10:46:17;;;;;;;4.72;2.60;;;31.30;45.60;;;;;;5052016;28;20040;-69
2023/08/27 10:48:52;;;;;;;3.00;2.50;;;31.20;45.20;;;;;;5051732;28;20053;-69
2023/08/27 10:51:21;;;;;;;4.57;3.47;;;31.20;44.90;;;;;;5031765;28;20508;-69
2023/08/27 10:53:49;;;;;;;4.88;3.22;;;31.30;44.40;;;;;;5014742;28;20033;-69
2023/08/27 10:56:31;;;;;;;4.60;3.22;;;31.10;44.10;;;;;;5031903;28;20037;-69
2023/08/27 10:59:27;;;;;;;4.05;2.83;;;31.00;43.90;;;;;;5034450;28;20037;-70
2023/08/27 11:01:53;;;;;;;3.22;2.30;;;31.20;43.60;;;;;;5003425;28;20046;-69
2023/08/27 11:04:19;;;;;;;4.60;2.95;;;31.10;43.40;;;;;;5009733;28;20129;-68
2023/08/27 11:06:48;;;;;;;3.88;3.10;;;31.10;43.20;;;;;;5009682;28;20057;-69
2023/08/27 11:09:17;;;;;;;4.38;2.72;;;31.10;43.20;;;;;;5008940;28;20473;-69
2023/08/27 11:11:54;;;;;;;7.85;2.80;;;31.20;42.90;;;;;;5009185;28;20045;-69
2023/08/27 11:14:24;;;;;;;3.70;2.20;;;31.10;42.70;;;;;;4993180;28;20572;-69
2023/08/27 11:17:03;;;;;;;4.15;2.83;;;31.10;42.50;;;;;;4976206;28;20054;-69
2023/08/27 11:19:37;;;;;;;3.40;2.50;;;31.00;42.30;;;;;;5008650;28;20046;-69
2023/08/27 11:22:09;;;;;;;4.88;2.85;;;31.10;42.20;;;;;;5009415;28;20128;-69
2023/08/27 11:24:42;;;;;;;3.85;2.55;;;31.00;42.10;;;;;;5009062;28;20042;-69
2023/08/27 11:27:09;;;;;;;3.35;2.20;;;31.20;44.10;;;;;;5009414;28;20805;-68
2023/08/27 11:29:40;;;;;;;4.78;2.70;;;31.10;42.80;;;;;;5009098;28;20069;-69
2023/08/27 11:32:08;;;;;;;2.97;2.38;;;31.10;42.40;;;;;;4992683;28;20121;-68
2023/08/27 11:34:35;;;;;;;3.65;2.10;;;31.00;42.20;;;;;;4992624;28;20041;-68
2023/08/27 11:37:03;;;;;;;3.08;2.63;;;30.80;41.80;;;;;;5008961;28;20076;-68
2023/08/27 11:39:30;;;;;;;3.05;2.47;;;30.90;41.50;;;;;;5051070;28;20054;-68
2023/08/27 11:41:56;;;;;;;4.60;2.47;;;30.80;41.40;;;;;;5051514;28;20052;-69
2023/08/27 11:44:23;;;;;;;4.15;2.53;;;30.90;41.50;;;;;;5049423;28;20029;-68
2023/08/27 11:46:51;;;;;;;3.05;2.75;;;30.90;41.20;;;;;;5068187;28;20052;-69
2023/08/27 11:49:31;;;;;;;2.75;2.10;;;30.90;41.10;;;;;;5068671;28;20049;-68
2023/08/27 11:51:58;;;;;;;3.67;2.95;;;30.80;41.00;;;;;;5068317;28;20495;-68
2023/08/27 11:54:30;;;;;;;8.43;2.90;;;30.90;41.00;;;;;;5068634;28;20043;-68
2023/08/27 11:56:57;;;;;;;3.72;2.08;;;30.60;40.90;;;;;;5068296;28;20060;-69
2023/08/27 11:59:27;;;;;;;2.80;2.30;;;30.80;41.00;;;;;;5068441;28;20072;-68
2023/08/27 12:01:54;;;;;;;6.07;2.70;;;30.70;41.00;;;;;;5068121;28;20055;-68
2023/08/27 12:04:21;;;;;;;2.97;2.70;;;30.70;41.10;;;;;;5068393;28;20029;-68
2023/08/27 12:06:51;;;;;;;3.22;2.53;;;30.70;41.20;;;;;;5068304;28;20048;-69
2023/08/27 12:09:26;;;;;;;4.28;3.10;;;30.60;41.50;;;;;;5068034;28;20375;-69
2023/08/27 12:11:52;;;;;;;2.75;2.20;;;30.60;41.80;;;;;;5068091;28;20052;-68
2023/08/27 12:14:26;;;;;;;4.25;2.30;;;30.60;41.90;;;;;;5067734;28;20040;-69
2023/08/27 12:16:53;;;;;;;2.70;2.20;;;30.70;42.20;;;;;;5072693;28;20109;-69
2023/08/27 12:19:21;;;;;;;5.97;2.63;;;30.60;42.40;;;;;;5070989;28;20040;-68
2023/08/27 12:21:52;;;;;;;6.65;2.33;;;30.60;43.10;;;;;;5069376;28;20040;-69
2023/08/27 12:24:41;;;;;;;1.98;1.85;;;30.60;43.90;;;;;;5070960;28;20039;-68
2023/08/27 12:27:09;;;;;;;2.67;2.20;;;30.60;43.80;;;;;;5070791;28;20148;-68
2023/08/27 12:29:40;;;;;;;2.35;1.98;;;30.60;43.90;;;;;;5070538;28;20380;-68
2023/08/27 12:32:14;;;;;;;3.03;2.00;;;30.50;44.00;;;;;;5070175;28;20491;-69
2023/08/27 12:34:51;;;;;;;4.28;2.50;;;30.50;44.00;;;;;;5070361;28;20461;-69
2023/08/27 12:37:19;;;;;;;2.90;2.40;;;30.50;44.10;;;;;;5051306;28;20040;-68
2023/08/27 12:39:46;;;;;;;3.45;2.60;;;30.60;44.10;;;;;;5051249;28;20047;-68
2023/08/27 12:42:14;;;;;;;5.97;3.08;;;30.50;44.30;;;;;;5049896;28;20041;-73
2023/08/27 12:44:40;;;;;;;3.60;2.38;;;30.40;44.40;;;;;;5049985;28;20047;-67
2023/08/27 12:47:08;;;;;;;3.13;2.60;;;30.40;44.40;;;;;;5049562;28;20131;-66
2023/08/27 12:49:35;;;;;;;3.40;2.38;;;30.60;44.50;;;;;;5050366;28;20021;-67